createdAt,value
2022-08-23T00:03:27.824Z,2.60
2022-08-23T00:05:56.462Z,2.50
2022-08-23T00:08:25.938Z,1.80
2022-08-23T00:10:54.206Z,2.10
2022-08-23T00:13:22.525Z,2.30
2022-08-23T00:15:50.974Z,2.20
2022-08-23T00:18:20.614Z,2.53
2022-08-23T00:20:49.057Z,2.77
2022-08-23T00:23:17.697Z,2.17
2022-08-23T00:25:47.301Z,2.50
2022-08-23T00:28:15.567Z,2.50
2022-08-23T00:30:43.645Z,2.30
2022-08-23T00:33:11.753Z,2.10
2022-08-23T00:35:40.143Z,2.30
2022-08-23T00:38:33.660Z,3.20
2022-08-23T00:40:58.206Z,3.00
2022-08-23T00:43:47.332Z,3.20
2022-08-23T00:46:39.777Z,3.50
2022-08-23T00:49:11.018Z,4.30
2022-08-23T00:51:52.096Z,3.53
2022-08-23T00:54:22.451Z,2.93
2022-08-23T00:56:52.836Z,4.00
2022-08-23T00:59:21.080Z,3.70
2022-08-23T01:01:49.507Z,3.20
2022-08-23T01:04:18.698Z,3.40
2022-08-23T01:06:49.998Z,3.00
2022-08-23T01:09:19.949Z,2.83
2022-08-23T01:11:53.695Z,3.87
2022-08-23T01:14:27.161Z,3.10
2022-08-23T01:16:57.942Z,2.77
2022-08-23T01:19:31.652Z,3.10
2022-08-23T01:22:03.997Z,2.90
2022-08-23T01:24:48.012Z,3.23
2022-08-23T01:27:22.166Z,2.90
2022-08-23T01:29:50.495Z,3.20
2022-08-23T01:32:18.774Z,3.00
2022-08-23T01:34:51.890Z,3.77
2022-08-23T01:37:21.476Z,4.30
2022-08-23T01:39:52.858Z,3.00
2022-08-23T01:42:21.209Z,4.00
2022-08-23T01:44:49.282Z,3.27
2022-08-23T01:47:17.462Z,3.00
2022-08-23T01:49:45.794Z,3.33
2022-08-23T01:52:15.427Z,3.23
2022-08-23T01:54:43.707Z,3.20
2022-08-23T01:57:13.511Z,4.00
2022-08-23T01:59:41.602Z,4.67
2022-08-23T02:02:09.944Z,3.50
2022-08-23T02:04:38.456Z,4.00
2022-08-23T02:07:06.860Z,3.60
2022-08-23T02:09:35.155Z,3.63
2022-08-23T02:12:03.550Z,4.43
2022-08-23T02:14:33.399Z,3.67
2022-08-23T02:17:03.202Z,4.20
2022-08-23T02:19:32.736Z,4.27
2022-08-23T02:22:01.047Z,4.30
2022-08-23T02:24:31.104Z,4.40
2022-08-23T02:27:02.402Z,3.60
2022-08-23T02:29:33.141Z,4.83
2022-08-23T02:32:01.378Z,4.20
2022-08-23T02:34:30.485Z,4.33
2022-08-23T02:36:59.265Z,3.70
2022-08-23T02:39:28.185Z,4.07
2022-08-23T02:41:56.465Z,5.23
2022-08-23T02:44:24.650Z,4.67
2022-08-23T02:46:54.250Z,3.67
2022-08-23T02:49:22.518Z,4.60
2022-08-23T02:51:50.949Z,4.30
2022-08-23T02:54:19.246Z,4.70
2022-08-23T02:56:47.624Z,4.07
2022-08-23T02:59:16.330Z,4.10
2022-08-23T03:01:45.587Z,4.00
2022-08-23T03:04:15.078Z,4.57
2022-08-23T03:06:43.217Z,4.00
2022-08-23T03:09:11.725Z,4.00
2022-08-23T03:11:44.932Z,4.00
2022-08-23T03:14:13.483Z,3.97
2022-08-23T03:16:43.575Z,3.03
2022-08-23T03:19:12.248Z,4.77
2022-08-23T03:21:43.311Z,4.37
2022-08-23T03:24:11.962Z,4.00
2022-08-23T03:26:42.976Z,4.40
2022-08-23T03:29:11.732Z,3.80
2022-08-23T03:31:40.078Z,4.00
2022-08-23T03:34:08.437Z,4.50
2022-08-23T03:36:36.696Z,4.20
2022-08-23T03:39:07.109Z,4.13
2022-08-23T03:41:36.056Z,4.57
2022-08-23T03:44:04.959Z,4.33
2022-08-23T03:46:34.276Z,4.43
2022-08-23T03:49:03.454Z,4.90
2022-08-23T03:51:32.677Z,4.43
2022-08-23T03:54:01.022Z,4.80
2022-08-23T03:56:33.516Z,3.97
2022-08-23T03:59:06.398Z,4.30
2022-08-23T04:01:34.701Z,5.30
2022-08-23T04:04:02.991Z,4.90
2022-08-23T04:06:33.370Z,3.90
2022-08-23T04:09:04.855Z,4.60
2022-08-23T04:11:34.617Z,4.53
2022-08-23T04:14:02.733Z,4.57
2022-08-23T04:16:36.290Z,4.33
2022-08-23T04:19:05.124Z,4.47
2022-08-23T04:21:38.402Z,4.83
2022-08-23T04:24:06.804Z,3.93
2022-08-23T04:26:36.417Z,4.57
2022-08-23T04:29:05.073Z,4.27
2022-08-23T04:31:34.714Z,4.60
2022-08-23T04:34:03.880Z,4.80
2022-08-23T04:36:36.116Z,4.97
2022-08-23T04:39:04.360Z,4.33
2022-08-23T04:41:50.468Z,5.03
2022-08-23T04:44:20.125Z,4.70
2022-08-23T04:46:48.700Z,4.20
2022-08-23T04:49:17.552Z,4.07
2022-08-23T04:51:52.969Z,4.50
2022-08-23T04:54:23.296Z,4.77
2022-08-23T04:56:51.937Z,4.37
2022-08-23T04:59:21.761Z,4.47
2022-08-23T05:01:50.823Z,4.00
2022-08-23T05:04:19.153Z,4.53
2022-08-23T05:06:47.813Z,4.13
2022-08-23T05:09:20.530Z,3.43
2022-08-23T05:11:49.428Z,3.67
2022-08-23T05:14:17.910Z,3.73
2022-08-23T05:16:49.461Z,4.27
2022-08-23T05:19:18.085Z,3.93
2022-08-23T05:21:46.147Z,3.83
2022-08-23T05:24:14.354Z,4.60
2022-08-23T05:26:42.565Z,3.50
2022-08-23T05:29:11.043Z,3.67
2022-08-23T05:31:39.193Z,3.90
2022-08-23T05:34:09.702Z,4.00
2022-08-23T05:36:37.852Z,4.97
2022-08-23T05:39:21.180Z,3.73
2022-08-23T05:42:03.630Z,4.37
2022-08-23T05:44:31.927Z,3.27
2022-08-23T05:47:10.411Z,4.43
2022-08-23T05:49:41.237Z,3.20
2022-08-23T05:52:11.715Z,3.43
2022-08-23T05:54:40.216Z,4.03
2022-08-23T05:57:08.377Z,3.93
2022-08-23T05:59:36.627Z,3.97
2022-08-23T06:02:05.326Z,3.77
2022-08-23T06:04:33.627Z,4.33
2022-08-23T06:07:06.021Z,3.67
2022-08-23T06:09:34.301Z,3.93
2022-08-23T06:12:02.917Z,3.80
2022-08-23T06:14:31.140Z,4.40
2022-08-23T06:16:59.414Z,3.70
2022-08-23T06:19:27.466Z,4.10
2022-08-23T06:21:55.693Z,4.10
2022-08-23T06:24:26.633Z,3.33
2022-08-23T06:26:54.762Z,4.30
2022-08-23T06:29:23.786Z,3.73
2022-08-23T06:31:53.321Z,3.77
2022-08-23T06:34:23.906Z,3.73
2022-08-23T06:36:55.240Z,3.37
2022-08-23T06:39:28.761Z,4.23
2022-08-23T06:42:00.736Z,3.57
2022-08-23T06:44:29.805Z,4.00
2022-08-23T06:46:58.535Z,3.70
2022-08-23T06:49:27.843Z,3.43
2022-08-23T06:51:57.507Z,3.17
2022-08-23T06:54:30.428Z,3.40
2022-08-23T06:56:59.295Z,3.60
2022-08-23T06:59:27.802Z,3.17
2022-08-23T07:01:57.913Z,3.40
2022-08-23T07:04:28.975Z,3.33
2022-08-23T07:06:57.218Z,3.13
2022-08-23T07:09:25.714Z,3.30
2022-08-23T07:11:56.220Z,3.57
2022-08-23T07:14:24.696Z,4.27
2022-08-23T07:16:54.963Z,3.33
2022-08-23T07:19:29.169Z,4.10
2022-08-23T07:21:58.449Z,3.40
2022-08-23T07:24:32.128Z,3.60
2022-08-23T07:27:07.084Z,4.00
2022-08-23T07:29:37.446Z,3.40
2022-08-23T07:32:06.233Z,3.27
2022-08-23T07:34:34.786Z,3.10
2022-08-23T07:37:02.867Z,3.10
2022-08-23T07:39:31.757Z,3.63
2022-08-23T07:42:23.174Z,3.40
2022-08-23T07:44:53.497Z,3.17
2022-08-23T07:47:22.284Z,3.20
2022-08-23T07:49:51.113Z,3.80
2022-08-23T07:52:19.426Z,3.00
2022-08-23T07:54:48.505Z,3.87
2022-08-23T07:57:20.182Z,3.43
2022-08-23T07:59:48.796Z,3.60
2022-08-23T08:02:16.915Z,2.90
2022-08-23T08:04:45.535Z,2.80
2022-08-23T08:07:21.484Z,2.33
2022-08-23T08:09:49.852Z,2.57
2022-08-23T08:12:20.072Z,3.17
2022-08-23T08:14:49.016Z,3.23
2022-08-23T08:17:25.448Z,3.10
2022-08-23T08:19:55.667Z,3.07
2022-08-23T08:22:24.085Z,2.13
2022-08-23T08:24:52.316Z,2.50
2022-08-23T08:27:21.815Z,2.30
2022-08-23T08:29:49.938Z,2.63
2022-08-23T08:32:18.406Z,2.00
2022-08-23T08:34:46.630Z,2.53
2022-08-23T08:37:14.685Z,2.83
2022-08-23T08:39:45.858Z,2.13
2022-08-23T08:42:40.549Z,2.40
2022-08-23T08:45:12.672Z,3.60
2022-08-23T08:47:45.471Z,2.20
2022-08-23T08:50:21.047Z,2.50
2022-08-23T08:52:51.504Z,2.60
2022-08-23T08:55:22.507Z,2.20
2022-08-23T08:57:53.646Z,2.00
2022-08-23T09:00:23.682Z,2.17
2022-08-23T09:02:52.319Z,2.50
2022-08-23T09:05:24.804Z,2.13
2022-08-23T09:08:04.645Z,2.40
2022-08-23T09:10:52.596Z,2.10
2022-08-23T09:13:57.621Z,2.13
2022-08-23T09:16:33.630Z,2.40
2022-08-23T09:19:03.408Z,2.53
2022-08-23T09:21:36.146Z,2.20
2022-08-23T09:24:04.975Z,1.60
2022-08-23T09:26:33.126Z,2.30
2022-08-23T09:29:05.179Z,2.20
2022-08-23T09:31:41.921Z,1.50
2022-08-23T09:34:12.061Z,2.00
2022-08-23T09:36:40.264Z,1.50
2022-08-23T09:39:10.094Z,2.20
2022-08-23T09:41:41.564Z,1.43
2022-08-23T09:44:13.689Z,2.30
2022-08-23T09:46:44.353Z,1.57
2022-08-23T09:49:27.723Z,1.90
2022-08-23T09:51:57.359Z,2.30
2022-08-23T09:54:30.101Z,1.57
2022-08-23T09:57:00.104Z,2.20
2022-08-23T09:59:38.634Z,1.73
2022-08-23T10:02:16.395Z,2.17
2022-08-23T10:04:56.184Z,2.20
2022-08-23T10:07:31.039Z,1.50
2022-08-23T10:10:15.085Z,1.60
2022-08-23T10:12:43.245Z,1.37
2022-08-23T10:15:17.782Z,1.97
2022-08-23T10:17:52.727Z,1.77
2022-08-23T10:20:32.719Z,2.03
2022-08-23T10:23:11.952Z,1.97
2022-08-23T10:25:44.635Z,2.17
2022-08-23T10:28:35.762Z,1.53
2022-08-23T10:31:16.145Z,1.77
2022-08-23T10:33:48.782Z,1.80
2022-08-23T10:36:23.988Z,1.93
2022-08-23T10:38:56.860Z,1.50
2022-08-23T10:41:41.798Z,3.03
2022-08-23T10:44:26.008Z,1.60
2022-08-23T10:47:03.709Z,1.70
2022-08-23T10:49:32.305Z,1.80
2022-08-23T10:52:01.637Z,1.70
2022-08-23T10:54:45.940Z,2.20
2022-08-23T10:57:17.155Z,1.50
2022-08-23T10:59:46.700Z,1.60
2022-08-23T11:02:20.825Z,1.63
2022-08-23T11:04:54.690Z,1.60
2022-08-23T11:07:28.239Z,1.60
2022-08-23T11:09:59.437Z,1.60
2022-08-23T11:12:33.681Z,1.77
2022-08-23T11:15:15.350Z,2.00
2022-08-23T11:17:56.314Z,2.10
2022-08-23T11:21:00.965Z,1.90
2022-08-23T11:23:47.672Z,1.70
2022-08-23T11:27:07.233Z,1.93
2022-08-23T11:29:38.855Z,2.03
2022-08-23T11:32:29.288Z,1.80
2022-08-23T11:35:09.337Z,1.70
2022-08-23T11:37:55.169Z,1.60
2022-08-23T11:40:58.782Z,1.83
2022-08-23T11:43:34.517Z,2.20
2022-08-23T11:46:30.438Z,1.80
2022-08-23T11:49:12.727Z,1.50
2022-08-23T11:51:46.408Z,1.70
2022-08-23T11:54:30.740Z,1.80
2022-08-23T11:57:11.106Z,1.73
2022-08-23T12:00:04.417Z,1.93
2022-08-23T12:03:02.360Z,1.60
2022-08-23T12:06:04.225Z,1.70
2022-08-23T12:08:56.055Z,1.50
2022-08-23T12:11:25.934Z,1.70
2022-08-23T12:14:00.273Z,1.73
2022-08-23T12:16:32.640Z,1.90
2022-08-23T12:19:03.446Z,1.30
2022-08-23T12:21:34.795Z,1.60
2022-08-23T12:24:15.283Z,1.40
2022-08-23T12:26:49.608Z,1.70
2022-08-23T12:29:24.669Z,1.53
2022-08-23T12:31:57.070Z,1.33
2022-08-23T12:34:30.410Z,1.47
2022-08-23T12:37:08.849Z,1.70
2022-08-23T12:39:40.912Z,1.70
2022-08-23T12:42:15.738Z,1.40
2022-08-23T12:44:45.076Z,1.50
2022-08-23T12:47:15.720Z,1.17
2022-08-23T12:49:44.111Z,1.50
2022-08-23T12:52:13.488Z,2.20
2022-08-23T12:54:44.361Z,1.40
2022-08-23T12:57:18.875Z,1.90
2022-08-23T12:59:52.602Z,1.63
2022-08-23T13:02:25.933Z,1.93
2022-08-23T13:04:56.040Z,1.90
2022-08-23T13:07:26.631Z,1.13
2022-08-23T13:09:56.667Z,1.17
2022-08-23T13:12:25.193Z,1.63
2022-08-23T13:14:55.023Z,1.43
2022-08-23T13:17:32.901Z,1.37
2022-08-23T13:20:21.847Z,1.43
2022-08-23T13:22:59.615Z,1.60
2022-08-23T13:25:32.789Z,1.10
2022-08-23T13:28:03.489Z,1.50
2022-08-23T13:30:33.422Z,1.47
2022-08-23T13:33:22.513Z,1.43
2022-08-23T13:35:52.338Z,1.33
2022-08-23T13:38:24.939Z,1.63
2022-08-23T13:41:06.019Z,1.47
2022-08-23T13:43:38.200Z,1.40
2022-08-23T13:46:16.257Z,1.40
2022-08-23T13:48:48.872Z,1.37
2022-08-23T13:51:36.988Z,1.20
2022-08-23T13:54:08.217Z,1.40
2022-08-23T13:56:42.142Z,1.43
2022-08-23T13:59:31.810Z,1.40
2022-08-23T14:02:01.736Z,1.83
2022-08-23T14:04:29.868Z,1.53
2022-08-23T14:06:58.055Z,1.30
2022-08-23T14:09:26.278Z,1.27
2022-08-23T14:11:58.726Z,1.40
2022-08-23T14:14:27.662Z,1.30
2022-08-23T14:16:59.669Z,1.30
2022-08-23T14:22:19.298Z,1.13
2022-08-23T14:24:47.634Z,1.30
2022-08-23T14:27:17.261Z,1.20
2022-08-23T14:29:45.301Z,1.43
2022-08-23T14:32:13.439Z,1.30
2022-08-23T14:34:41.664Z,1.33
2022-08-23T14:39:58.264Z,1.70
2022-08-23T14:42:28.008Z,1.10
2022-08-23T14:44:56.216Z,1.63
2022-08-23T14:47:24.592Z,1.33
2022-08-23T14:49:53.986Z,1.30
2022-08-23T14:52:23.106Z,1.00
2022-08-23T14:54:51.360Z,1.10
2022-08-23T14:57:19.777Z,1.30
2022-08-23T14:59:50.110Z,1.30
2022-08-23T15:02:24.692Z,1.47
2022-08-23T15:04:52.992Z,1.83
2022-08-23T15:07:21.523Z,1.43
2022-08-23T15:09:50.583Z,1.63
2022-08-23T15:15:13.350Z,1.53
2022-08-23T15:17:46.967Z,1.60
2022-08-23T15:20:15.417Z,1.40
2022-08-23T15:22:45.060Z,1.27
2022-08-23T15:25:14.213Z,1.47
2022-08-23T15:27:42.804Z,1.30
2022-08-23T15:30:14.429Z,0.90
2022-08-23T15:32:52.341Z,1.30
2022-08-23T15:35:31.948Z,1.30
2022-08-23T15:38:00.245Z,0.93
2022-08-23T15:40:28.394Z,1.30
2022-08-23T15:42:57.431Z,1.10
2022-08-23T15:45:27.093Z,1.20
2022-08-23T15:47:58.858Z,1.77
2022-08-23T15:50:30.999Z,1.23
2022-08-23T15:52:59.373Z,0.90
2022-08-23T15:55:29.701Z,1.40
2022-08-23T15:57:58.702Z,1.17
2022-08-23T16:00:29.348Z,1.30
2022-08-23T16:03:18.976Z,1.43
2022-08-23T16:05:47.678Z,1.30
2022-08-23T16:08:20.477Z,1.60
2022-08-23T16:10:48.771Z,1.00
2022-08-23T16:13:17.376Z,1.00
2022-08-23T16:15:47.025Z,1.20
2022-08-23T16:18:15.312Z,1.30
2022-08-23T16:20:43.794Z,1.40
2022-08-23T16:23:13.507Z,1.00
2022-08-23T16:25:42.246Z,1.20
2022-08-23T16:28:10.440Z,1.20
2022-08-23T16:30:38.829Z,1.30
2022-08-23T16:33:08.350Z,1.20
2022-08-23T16:35:36.588Z,1.30
2022-08-23T16:38:05.164Z,1.40
2022-08-23T16:40:33.481Z,1.30
2022-08-23T16:43:01.871Z,1.37
2022-08-23T16:45:30.033Z,1.80
2022-08-23T16:47:58.151Z,1.30
2022-08-23T16:50:28.110Z,1.30
2022-08-23T16:52:56.318Z,1.73
2022-08-23T16:55:24.490Z,1.00
2022-08-23T16:57:52.822Z,1.00
2022-08-23T17:00:21.199Z,1.27
2022-08-23T17:02:49.562Z,1.37
2022-08-23T17:05:20.114Z,1.23
2022-08-23T17:07:49.507Z,1.40
2022-08-23T17:10:19.568Z,0.90
2022-08-23T17:12:51.380Z,1.37
2022-08-23T17:15:23.771Z,1.60
2022-08-23T17:17:52.469Z,1.40
2022-08-23T17:20:22.901Z,1.33
2022-08-23T17:22:53.278Z,1.20
2022-08-23T17:25:21.843Z,1.47
2022-08-23T17:27:51.235Z,1.40
2022-08-23T17:30:21.982Z,1.07
2022-08-23T17:32:50.612Z,1.10
2022-08-23T17:35:20.598Z,1.23
2022-08-23T17:37:49.002Z,1.60
2022-08-23T17:40:21.677Z,1.80
2022-08-23T17:42:49.990Z,1.23
2022-08-23T17:45:19.461Z,1.40
2022-08-23T17:47:48.091Z,1.40
2022-08-23T17:50:18.221Z,1.67
2022-08-23T17:52:47.026Z,1.40
2022-08-23T17:55:17.228Z,1.13
2022-08-23T17:57:49.322Z,1.23
2022-08-23T18:00:20.042Z,1.17
2022-08-23T18:02:48.332Z,1.50
2022-08-23T18:05:16.974Z,1.70
2022-08-23T18:07:45.271Z,1.40
2022-08-23T18:10:14.354Z,1.30
2022-08-23T18:12:42.991Z,1.20
2022-08-23T18:15:13.786Z,1.20
2022-08-23T18:17:42.231Z,1.57
2022-08-23T18:20:11.699Z,1.90
2022-08-23T18:22:40.072Z,1.90
2022-08-23T18:25:09.640Z,1.43
2022-08-23T18:27:55.978Z,2.20
2022-08-23T18:30:25.882Z,1.00
2022-08-23T18:32:54.326Z,1.80
2022-08-23T18:35:22.443Z,1.97
2022-08-23T18:37:50.521Z,1.60
2022-08-23T18:40:18.629Z,1.57
2022-08-23T18:42:46.795Z,1.60
2022-08-23T18:45:15.076Z,1.10
2022-08-23T18:47:44.711Z,1.80
2022-08-23T18:50:14.136Z,1.30
2022-08-23T18:52:42.319Z,1.20
2022-08-23T18:55:11.303Z,1.90
2022-08-23T18:57:40.094Z,1.90
2022-08-23T19:00:10.929Z,1.80
2022-08-23T19:02:39.360Z,1.70
2022-08-23T19:05:09.851Z,1.57
2022-08-23T19:07:38.073Z,1.60
2022-08-23T19:10:07.264Z,1.17
2022-08-23T19:12:35.475Z,2.00
2022-08-23T19:15:04.033Z,1.67
2022-08-23T19:17:32.168Z,1.97
2022-08-23T19:20:00.436Z,1.67
2022-08-23T19:22:30.146Z,1.67
2022-08-23T19:24:58.892Z,2.33
2022-08-23T19:27:27.064Z,1.70
2022-08-23T19:29:55.350Z,1.93
2022-08-23T19:32:24.922Z,1.73
2022-08-23T19:34:53.332Z,2.63
2022-08-23T19:37:23.145Z,2.20
2022-08-23T19:39:53.259Z,1.70
2022-08-23T19:42:21.756Z,1.50
2022-08-23T19:44:50.062Z,1.93
2022-08-23T19:47:20.211Z,2.07
2022-08-23T19:49:50.288Z,2.30
2022-08-23T19:52:18.521Z,1.53
2022-08-23T19:54:46.637Z,1.60
2022-08-23T19:57:16.825Z,2.70
2022-08-23T19:59:45.060Z,1.90
2022-08-23T20:02:14.658Z,2.00
2022-08-23T20:04:42.992Z,2.00
2022-08-23T20:07:12.116Z,1.93
2022-08-23T20:09:40.477Z,1.80
2022-08-23T20:12:09.004Z,2.27
2022-08-23T20:14:39.276Z,2.27
2022-08-23T20:17:07.610Z,2.40
2022-08-23T20:19:36.177Z,2.50
2022-08-23T20:22:22.729Z,2.60
2022-08-23T20:24:52.833Z,2.20
2022-08-23T20:27:25.415Z,2.00
2022-08-23T20:30:03.473Z,2.27
2022-08-23T20:32:32.411Z,2.10
2022-08-23T20:35:01.505Z,2.60
2022-08-23T20:37:30.049Z,2.40
2022-08-23T20:39:58.348Z,2.30
2022-08-23T20:42:26.673Z,2.20
2022-08-23T20:44:55.229Z,2.00
2022-08-23T20:47:24.902Z,1.97
2022-08-23T20:49:53.126Z,2.23
2022-08-23T20:52:21.429Z,2.10
2022-08-23T20:54:49.658Z,2.03
2022-08-23T20:57:18.284Z,1.93
2022-08-23T20:59:46.811Z,2.20
2022-08-23T21:02:15.961Z,2.10
2022-08-23T21:04:45.668Z,1.97
2022-08-23T21:07:16.003Z,2.03
2022-08-23T21:09:44.798Z,1.90
2022-08-23T21:12:13.597Z,2.10
2022-08-23T21:14:41.816Z,2.27
2022-08-23T21:17:09.937Z,2.37
2022-08-23T21:19:38.221Z,2.40
2022-08-23T21:22:08.225Z,2.30
2022-08-23T21:24:36.941Z,1.97
2022-08-23T21:27:08.836Z,1.97
2022-08-23T21:29:38.696Z,2.13
2022-08-23T21:32:07.782Z,2.23
2022-08-23T21:34:37.208Z,2.00
2022-08-23T21:37:05.490Z,2.43
2022-08-23T21:39:35.073Z,2.03
2022-08-23T21:42:03.382Z,2.27
2022-08-23T21:44:43.596Z,2.07
2022-08-23T21:47:11.887Z,1.77
2022-08-23T21:49:40.678Z,2.30
2022-08-23T21:52:08.991Z,2.17
2022-08-23T21:54:43.243Z,1.90
2022-08-23T21:57:11.960Z,2.50
2022-08-23T21:59:40.403Z,2.30
2022-08-23T22:02:08.667Z,2.10
2022-08-23T22:04:36.902Z,2.13
2022-08-23T22:07:05.550Z,2.23
2022-08-23T22:09:34.438Z,2.83
2022-08-23T22:12:05.077Z,2.13
2022-08-23T22:14:34.811Z,2.27
2022-08-23T22:17:03.601Z,2.00
2022-08-23T22:19:31.720Z,1.87
2022-08-23T22:22:00.023Z,1.80
2022-08-23T22:24:34.111Z,2.07
2022-08-23T22:27:03.604Z,2.50
2022-08-23T22:29:31.766Z,2.10
2022-08-23T22:32:02.073Z,1.90
2022-08-23T22:34:30.736Z,2.10
2022-08-23T22:36:59.641Z,2.77
2022-08-23T22:39:27.841Z,2.40
2022-08-23T22:41:56.121Z,2.10
2022-08-23T22:44:26.106Z,2.20
2022-08-23T22:46:54.438Z,2.13
2022-08-23T22:49:22.631Z,2.40
2022-08-23T22:51:55.242Z,2.27
2022-08-23T22:54:25.124Z,2.00
2022-08-23T22:56:54.671Z,2.17
2022-08-23T22:59:27.857Z,1.90
2022-08-23T23:02:03.348Z,2.33
2022-08-23T23:04:33.726Z,2.30
2022-08-23T23:07:02.385Z,2.10
2022-08-23T23:09:30.610Z,2.47
2022-08-23T23:12:00.391Z,2.40
2022-08-23T23:14:30.448Z,2.03
2022-08-23T23:16:59.028Z,2.47
2022-08-23T23:19:45.771Z,2.00
2022-08-23T23:22:14.917Z,2.20
2022-08-23T23:24:43.088Z,2.13
2022-08-23T23:27:11.894Z,2.90
2022-08-23T23:29:42.328Z,2.40
2022-08-23T23:32:11.028Z,2.40
2022-08-23T23:34:39.184Z,2.40
2022-08-23T23:37:07.676Z,2.83
2022-08-23T23:39:35.948Z,2.57
2022-08-23T23:42:04.291Z,2.30
2022-08-23T23:44:32.476Z,2.50
2022-08-23T23:47:04.069Z,2.03
2022-08-23T23:49:33.696Z,2.33
2022-08-23T23:52:03.641Z,2.27
2022-08-23T23:54:33.827Z,2.50
2022-08-23T23:57:02.119Z,3.00
2022-08-23T23:59:30.515Z,3.30
